sensor_id;sensor_type;location;lat;lon;timestamp;temperature;humidity
3194;DHT22;1608;50.860;13.466;2023-02-12T00:00:17;7.70;99.90
3194;DHT22;1608;50.860;13.466;2023-02-12T00:02:46;7.60;99.90
3194;DHT22;1608;50.860;13.466;2023-02-12T00:05:12;7.70;99.90
3194;DHT22;1608;50.860;13.466;2023-02-12T00:07:41;7.80;99.90
3194;DHT22;1608;50.860;13.466;2023-02-12T00:10:08;7.80;99.90
3194;DHT22;1608;50.860;13.466;2023-02-12T00:12:35;7.70;99.90
3194;DHT22;1608;50.860;13.466;2023-02-12T00:15:01;7.70;99.90
3194;DHT22;1608;50.860;13.466;2023-02-12T00:17:28;7.60;99.90
3194;DHT22;1608;50.860;13.466;2023-02-12T00:19:56;7.90;99.90
3194;DHT22;1608;50.860;13.466;2023-02-12T00:22:23;7.90;99.90
3194;DHT22;1608;50.860;13.466;2023-02-12T00:24:50;7.80;99.90
3194;DHT22;1608;50.860;13.466;2023-02-12T00:27:17;7.70;99.90
3194;DHT22;1608;50.860;13.466;2023-02-12T00:29:44;7.70;99.90
3194;DHT22;1608;50.860;13.466;2023-02-12T00:32:10;7.80;99.90
3194;DHT22;1608;50.860;13.466;2023-02-12T00:34:38;7.80;99.90
3194;DHT22;1608;50.860;13.466;2023-02-12T00:37:07;7.90;99.90
3194;DHT22;1608;50.860;13.466;2023-02-12T00:39:33;8.10;99.90
3194;DHT22;1608;50.860;13.466;2023-02-12T00:42:02;8.10;99.90
3194;DHT22;1608;50.860;13.466;2023-02-12T00:44:29;8.20;99.90
3194;DHT22;1608;50.860;13.466;2023-02-12T00:46:56;8.40;99.90
3194;DHT22;1608;50.860;13.466;2023-02-12T00:49:23;8.60;99.90
3194;DHT22;1608;50.860;13.466;2023-02-12T00:51:50;8.30;99.90
3194;DHT22;1608;50.860;13.466;2023-02-12T00:54:18;8.00;99.90
3194;DHT22;1608;50.860;13.466;2023-02-12T00:56:45;8.30;99.90
3194;DHT22;1608;50.860;13.466;2023-02-12T00:59:11;8.10;99.90
3194;DHT22;1608;50.860;13.466;2023-02-12T01:01:38;8.20;99.90
3194;DHT22;1608;50.860;13.466;2023-02-12T01:04:05;8.10;99.90
3194;DHT22;1608;50.860;13.466;2023-02-12T01:06:32;8.10;99.90
3194;DHT22;1608;50.860;13.466;2023-02-12T01:08:59;8.20;99.90
3194;DHT22;1608;50.860;13.466;2023-02-12T01:11:27;8.10;99.90
3194;DHT22;1608;50.860;13.466;2023-02-12T01:13:54;8.20;99.90
3194;DHT22;1608;50.860;13.466;2023-02-12T01:16:23;7.90;99.90
3194;DHT22;1608;50.860;13.466;2023-02-12T01:18:51;7.70;99.90
3194;DHT22;1608;50.860;13.466;2023-02-12T01:21:20;8.50;99.90
3194;DHT22;1608;50.860;13.466;2023-02-12T01:23:47;8.30;99.90
3194;DHT22;1608;50.860;13.466;2023-02-12T01:26:16;8.00;99.90
3194;DHT22;1608;50.860;13.466;2023-02-12T01:28:48;8.10;99.90
3194;DHT22;1608;50.860;13.466;2023-02-12T01:31:17;8.10;99.90
3194;DHT22;1608;50.860;13.466;2023-02-12T01:33:47;8.20;99.90
3194;DHT22;1608;50.860;13.466;2023-02-12T01:36:14;8.20;99.90
3194;DHT22;1608;50.860;13.466;2023-02-12T01:38:40;8.30;99.90
3194;DHT22;1608;50.860;13.466;2023-02-12T01:41:10;8.20;99.90
3194;DHT22;1608;50.860;13.466;2023-02-12T01:43:37;8.20;99.90
3194;DHT22;1608;50.860;13.466;2023-02-12T01:46:06;7.80;99.90
3194;DHT22;1608;50.860;13.466;2023-02-12T01:48:36;8.00;99.90
3194;DHT22;1608;50.860;13.466;2023-02-12T01:51:06;8.50;99.90
3194;DHT22;1608;50.860;13.466;2023-02-12T01:53:38;8.40;99.90
3194;DHT22;1608;50.860;13.466;2023-02-12T01:56:07;8.40;99.90
3194;DHT22;1608;50.860;13.466;2023-02-12T01:58:37;8.10;99.90
3194;DHT22;1608;50.860;13.466;2023-02-12T02:01:09;8.00;99.90
3194;DHT22;1608;50.860;13.466;2023-02-12T02:03:37;8.00;99.90
3194;DHT22;1608;50.860;13.466;2023-02-12T02:06:08;8.00;99.90
3194;DHT22;1608;50.860;13.466;2023-02-12T02:08:37;7.90;99.90
3194;DHT22;1608;50.860;13.466;2023-02-12T02:11:04;7.80;99.90
3194;DHT22;1608;50.860;13.466;2023-02-12T02:13:51;7.90;99.90
3194;DHT22;1608;50.860;13.466;2023-02-12T02:16:43;8.00;99.90
3194;DHT22;1608;50.860;13.466;2023-02-12T02:19:23;8.00;99.90
3194;DHT22;1608;50.860;13.466;2023-02-12T02:22:26;8.00;99.90
3194;DHT22;1608;50.860;13.466;2023-02-12T02:25:18;8.10;99.90
3194;DHT22;1608;50.860;13.466;2023-02-12T02:27:57;8.10;99.90
3194;DHT22;1608;50.860;13.466;2023-02-12T02:30:34;8.10;99.90
3194;DHT22;1608;50.860;13.466;2023-02-12T02:33:24;8.10;99.90
3194;DHT22;1608;50.860;13.466;2023-02-12T02:36:02;8.20;99.90
3194;DHT22;1608;50.860;13.466;2023-02-12T02:38:36;8.10;99.90
3194;DHT22;1608;50.860;13.466;2023-02-12T02:41:08;8.20;99.90
3194;DHT22;1608;50.860;13.466;2023-02-12T02:43:42;8.20;99.90
3194;DHT22;1608;50.860;13.466;2023-02-12T02:46:15;8.10;99.90
3194;DHT22;1608;50.860;13.466;2023-02-12T02:48:45;8.10;99.90
3194;DHT22;1608;50.860;13.466;2023-02-12T02:51:15;8.10;99.90
3194;DHT22;1608;50.860;13.466;2023-02-12T02:53:47;8.10;99.90
3194;DHT22;1608;50.860;13.466;2023-02-12T02:56:18;8.00;99.90
3194;DHT22;1608;50.860;13.466;2023-02-12T02:58:49;8.10;99.90
3194;DHT22;1608;50.860;13.466;2023-02-12T03:01:21;8.10;99.90
3194;DHT22;1608;50.860;13.466;2023-02-12T03:03:53;8.00;99.90
3194;DHT22;1608;50.860;13.466;2023-02-12T03:06:25;8.00;99.90
3194;DHT22;1608;50.860;13.466;2023-02-12T03:08:55;8.10;99.90
3194;DHT22;1608;50.860;13.466;2023-02-12T03:11:26;8.00;99.90
3194;DHT22;1608;50.860;13.466;2023-02-12T03:13:58;8.10;99.90
3194;DHT22;1608;50.860;13.466;2023-02-12T03:16:31;8.10;99.90
3194;DHT22;1608;50.860;13.466;2023-02-12T03:19:03;8.10;99.90
3194;DHT22;1608;50.860;13.466;2023-02-12T03:21:36;8.00;99.90
3194;DHT22;1608;50.860;13.466;2023-02-12T03:24:10;8.00;99.90
3194;DHT22;1608;50.860;13.466;2023-02-12T03:26:42;8.00;99.90
3194;DHT22;1608;50.860;13.466;2023-02-12T03:29:11;8.00;99.90
3194;DHT22;1608;50.860;13.466;2023-02-12T03:31:48;8.10;99.90
3194;DHT22;1608;50.860;13.466;2023-02-12T03:34:24;8.10;99.90
3194;DHT22;1608;50.860;13.466;2023-02-12T03:36:55;8.00;99.90
3194;DHT22;1608;50.860;13.466;2023-02-12T03:39:28;8.00;99.90
3194;DHT22;1608;50.860;13.466;2023-02-12T03:42:01;8.00;99.90
3194;DHT22;1608;50.860;13.466;2023-02-12T03:44:45;8.00;99.90
3194;DHT22;1608;50.860;13.466;2023-02-12T03:47:20;8.00;99.90
3194;DHT22;1608;50.860;13.466;2023-02-12T03:49:53;8.00;99.90
3194;DHT22;1608;50.860;13.466;2023-02-12T03:52:21;8.00;99.90
3194;DHT22;1608;50.860;13.466;2023-02-12T03:54:48;8.00;99.90
3194;DHT22;1608;50.860;13.466;2023-02-12T03:57:18;8.00;99.90
3194;DHT22;1608;50.860;13.466;2023-02-12T03:59:47;8.00;99.90
3194;DHT22;1608;50.860;13.466;2023-02-12T04:02:17;8.00;99.90
3194;DHT22;1608;50.860;13.466;2023-02-12T04:04:44;8.00;99.90
3194;DHT22;1608;50.860;13.466;2023-02-12T04:07:12;8.10;99.90
3194;DHT22;1608;50.860;13.466;2023-02-12T04:09:39;8.10;99.90
3194;DHT22;1608;50.860;13.466;2023-02-12T04:12:24;8.10;99.90
3194;DHT22;1608;50.860;13.466;2023-02-12T04:15:05;8.10;99.90
3194;DHT22;1608;50.860;13.466;2023-02-12T04:17:43;8.10;99.90
3194;DHT22;1608;50.860;13.466;2023-02-12T04:20:17;8.10;99.90
3194;DHT22;1608;50.860;13.466;2023-02-12T04:22:54;8.10;99.90
3194;DHT22;1608;50.860;13.466;2023-02-12T04:25:40;8.10;99.90
3194;DHT22;1608;50.860;13.466;2023-02-12T04:28:15;8.00;99.90
3194;DHT22;1608;50.860;13.466;2023-02-12T04:30:50;8.10;99.90
3194;DHT22;1608;50.860;13.466;2023-02-12T04:33:23;8.10;99.90
3194;DHT22;1608;50.860;13.466;2023-02-12T04:35:55;8.10;99.90
3194;DHT22;1608;50.860;13.466;2023-02-12T04:38:27;8.20;99.90
3194;DHT22;1608;50.860;13.466;2023-02-12T04:40:56;8.20;99.90
3194;DHT22;1608;50.860;13.466;2023-02-12T04:43:28;8.10;99.90
3194;DHT22;1608;50.860;13.466;2023-02-12T04:45:55;8.20;99.90
3194;DHT22;1608;50.860;13.466;2023-02-12T04:48:23;8.20;99.90
3194;DHT22;1608;50.860;13.466;2023-02-12T04:50:50;8.20;99.90
3194;DHT22;1608;50.860;13.466;2023-02-12T04:53:17;8.30;99.90
3194;DHT22;1608;50.860;13.466;2023-02-12T04:55:44;8.20;99.90
3194;DHT22;1608;50.860;13.466;2023-02-12T04:58:12;8.20;99.90
3194;DHT22;1608;50.860;13.466;2023-02-12T05:00:39;8.10;99.90
3194;DHT22;1608;50.860;13.466;2023-02-12T05:03:06;8.10;99.90
3194;DHT22;1608;50.860;13.466;2023-02-12T05:05:34;8.00;99.90
3194;DHT22;1608;50.860;13.466;2023-02-12T05:08:01;8.10;99.90
3194;DHT22;1608;50.860;13.466;2023-02-12T05:10:27;8.10;99.90
3194;DHT22;1608;50.860;13.466;2023-02-12T05:12:54;8.20;99.90
3194;DHT22;1608;50.860;13.466;2023-02-12T05:15:21;8.10;99.90
3194;DHT22;1608;50.860;13.466;2023-02-12T05:17:48;8.20;99.90
3194;DHT22;1608;50.860;13.466;2023-02-12T05:20:15;8.30;99.90
3194;DHT22;1608;50.860;13.466;2023-02-12T05:22:43;8.20;99.90
3194;DHT22;1608;50.860;13.466;2023-02-12T05:25:10;8.50;99.90
3194;DHT22;1608;50.860;13.466;2023-02-12T05:27:37;8.30;99.90
3194;DHT22;1608;50.860;13.466;2023-02-12T05:30:05;8.30;99.90
3194;DHT22;1608;50.860;13.466;2023-02-12T05:32:33;8.30;99.90
3194;DHT22;1608;50.860;13.466;2023-02-12T05:35:00;8.30;99.90
3194;DHT22;1608;50.860;13.466;2023-02-12T05:37:27;8.30;99.90
3194;DHT22;1608;50.860;13.466;2023-02-12T05:39:57;8.40;99.90
3194;DHT22;1608;50.860;13.466;2023-02-12T05:42:24;8.30;99.90
3194;DHT22;1608;50.860;13.466;2023-02-12T05:44:50;8.30;99.90
3194;DHT22;1608;50.860;13.466;2023-02-12T05:47:17;8.30;99.90
3194;DHT22;1608;50.860;13.466;2023-02-12T05:49:44;8.30;99.90
3194;DHT22;1608;50.860;13.466;2023-02-12T05:52:11;8.30;99.90
3194;DHT22;1608;50.860;13.466;2023-02-12T05:54:37;8.30;99.90
3194;DHT22;1608;50.860;13.466;2023-02-12T05:57:06;8.30;99.90
3194;DHT22;1608;50.860;13.466;2023-02-12T05:59:33;8.30;99.90
3194;DHT22;1608;50.860;13.466;2023-02-12T06:01:59;8.20;99.90
3194;DHT22;1608;50.860;13.466;2023-02-12T06:04:27;8.20;99.90
3194;DHT22;1608;50.860;13.466;2023-02-12T06:06:55;8.20;99.90
3194;DHT22;1608;50.860;13.466;2023-02-12T06:09:22;8.20;99.90
3194;DHT22;1608;50.860;13.466;2023-02-12T06:11:49;8.20;99.90
3194;DHT22;1608;50.860;13.466;2023-02-12T06:14:19;8.20;99.90
3194;DHT22;1608;50.860;13.466;2023-02-12T06:16:47;8.10;99.90
3194;DHT22;1608;50.860;13.466;2023-02-12T06:19:14;8.10;99.90
3194;DHT22;1608;50.860;13.466;2023-02-12T06:21:41;8.10;99.90
3194;DHT22;1608;50.860;13.466;2023-02-12T06:24:08;8.10;99.90
3194;DHT22;1608;50.860;13.466;2023-02-12T06:26:35;8.00;99.90
3194;DHT22;1608;50.860;13.466;2023-02-12T06:29:02;8.00;99.90
3194;DHT22;1608;50.860;13.466;2023-02-12T06:31:33;8.00;99.90
3194;DHT22;1608;50.860;13.466;2023-02-12T06:34:01;8.00;99.90
3194;DHT22;1608;50.860;13.466;2023-02-12T06:36:29;8.00;99.90
3194;DHT22;1608;50.860;13.466;2023-02-12T06:38:56;8.00;99.90
3194;DHT22;1608;50.860;13.466;2023-02-12T06:41:23;8.00;99.90
3194;DHT22;1608;50.860;13.466;2023-02-12T06:43:50;8.00;99.90
3194;DHT22;1608;50.860;13.466;2023-02-12T06:46:17;8.00;99.90
3194;DHT22;1608;50.860;13.466;2023-02-12T06:48:45;8.10;99.90
3194;DHT22;1608;50.860;13.466;2023-02-12T06:51:14;8.10;99.90
3194;DHT22;1608;50.860;13.466;2023-02-12T06:53:42;8.10;99.90
3194;DHT22;1608;50.860;13.466;2023-02-12T06:56:10;8.20;99.90
3194;DHT22;1608;50.860;13.466;2023-02-12T06:58:38;8.20;99.90
3194;DHT22;1608;50.860;13.466;2023-02-12T07:01:09;8.30;99.90
3194;DHT22;1608;50.860;13.466;2023-02-12T07:03:38;8.30;99.90
3194;DHT22;1608;50.860;13.466;2023-02-12T07:06:07;8.20;99.90
3194;DHT22;1608;50.860;13.466;2023-02-12T07:08:34;8.20;99.90
3194;DHT22;1608;50.860;13.466;2023-02-12T07:11:01;8.30;99.90
3194;DHT22;1608;50.860;13.466;2023-02-12T07:13:27;8.20;99.90
3194;DHT22;1608;50.860;13.466;2023-02-12T07:15:54;8.20;99.90
3194;DHT22;1608;50.860;13.466;2023-02-12T07:18:21;8.20;99.90
3194;DHT22;1608;50.860;13.466;2023-02-12T07:20:48;8.20;99.90
3194;DHT22;1608;50.860;13.466;2023-02-12T07:23:16;8.30;99.90
3194;DHT22;1608;50.860;13.466;2023-02-12T07:25:43;8.30;99.90
3194;DHT22;1608;50.860;13.466;2023-02-12T07:28:10;8.30;99.90
3194;DHT22;1608;50.860;13.466;2023-02-12T07:30:37;8.30;99.90
3194;DHT22;1608;50.860;13.466;2023-02-12T07:33:03;8.30;99.90
3194;DHT22;1608;50.860;13.466;2023-02-12T07:35:30;8.40;99.90
3194;DHT22;1608;50.860;13.466;2023-02-12T07:37:57;8.40;99.90
3194;DHT22;1608;50.860;13.466;2023-02-12T07:40:25;8.50;99.90
3194;DHT22;1608;50.860;13.466;2023-02-12T07:42:54;8.50;99.90
3194;DHT22;1608;50.860;13.466;2023-02-12T07:45:21;8.50;99.90
3194;DHT22;1608;50.860;13.466;2023-02-12T07:47:49;8.60;99.90
3194;DHT22;1608;50.860;13.466;2023-02-12T07:50:16;8.60;99.90
3194;DHT22;1608;50.860;13.466;2023-02-12T07:52:43;8.70;99.90
3194;DHT22;1608;50.860;13.466;2023-02-12T07:55:10;8.70;99.90
3194;DHT22;1608;50.860;13.466;2023-02-12T07:57:38;8.70;99.90
3194;DHT22;1608;50.860;13.466;2023-02-12T08:00:06;8.70;99.90
3194;DHT22;1608;50.860;13.466;2023-02-12T08:02:33;8.70;99.90
3194;DHT22;1608;50.860;13.466;2023-02-12T08:05:00;8.70;99.90
3194;DHT22;1608;50.860;13.466;2023-02-12T08:07:27;8.70;99.90
3194;DHT22;1608;50.860;13.466;2023-02-12T08:09:54;8.70;99.90
3194;DHT22;1608;50.860;13.466;2023-02-12T08:12:21;8.70;99.90
3194;DHT22;1608;50.860;13.466;2023-02-12T08:14:49;8.70;99.90
3194;DHT22;1608;50.860;13.466;2023-02-12T08:17:16;8.70;99.90
3194;DHT22;1608;50.860;13.466;2023-02-12T08:19:43;8.80;99.90
3194;DHT22;1608;50.860;13.466;2023-02-12T08:22:10;8.80;99.90
3194;DHT22;1608;50.860;13.466;2023-02-12T08:24:37;8.80;99.90
3194;DHT22;1608;50.860;13.466;2023-02-12T08:27:04;8.90;99.90
3194;DHT22;1608;50.860;13.466;2023-02-12T08:29:31;9.00;99.90
3194;DHT22;1608;50.860;13.466;2023-02-12T08:32:01;9.00;99.90
3194;DHT22;1608;50.860;13.466;2023-02-12T08:34:32;9.10;99.90
3194;DHT22;1608;50.860;13.466;2023-02-12T08:37:00;9.20;99.90
3194;DHT22;1608;50.860;13.466;2023-02-12T08:39:28;9.30;99.90
3194;DHT22;1608;50.860;13.466;2023-02-12T08:41:55;9.30;99.90
3194;DHT22;1608;50.860;13.466;2023-02-12T08:44:22;9.30;99.90
3194;DHT22;1608;50.860;13.466;2023-02-12T08:46:51;9.30;99.90
3194;DHT22;1608;50.860;13.466;2023-02-12T08:49:23;9.40;99.90
3194;DHT22;1608;50.860;13.466;2023-02-12T08:51:52;9.40;99.90
3194;DHT22;1608;50.860;13.466;2023-02-12T08:54:20;9.40;99.90
3194;DHT22;1608;50.860;13.466;2023-02-12T08:56:48;9.40;99.90
3194;DHT22;1608;50.860;13.466;2023-02-12T08:59:16;9.40;99.90
3194;DHT22;1608;50.860;13.466;2023-02-12T09:01:43;9.50;99.90
3194;DHT22;1608;50.860;13.466;2023-02-12T09:04:14;9.40;99.90
3194;DHT22;1608;50.860;13.466;2023-02-12T09:06:44;9.40;99.90
3194;DHT22;1608;50.860;13.466;2023-02-12T09:09:12;9.30;99.90
3194;DHT22;1608;50.860;13.466;2023-02-12T09:11:39;9.30;99.90
3194;DHT22;1608;50.860;13.466;2023-02-12T09:14:07;9.30;99.90
3194;DHT22;1608;50.860;13.466;2023-02-12T09:16:35;9.30;99.90
3194;DHT22;1608;50.860;13.466;2023-02-12T09:19:04;9.30;99.90
3194;DHT22;1608;50.860;13.466;2023-02-12T09:21:31;9.20;99.90
3194;DHT22;1608;50.860;13.466;2023-02-12T09:24:00;9.10;99.90
3194;DHT22;1608;50.860;13.466;2023-02-12T09:26:27;9.10;99.90
3194;DHT22;1608;50.860;13.466;2023-02-12T09:28:54;9.10;99.90
3194;DHT22;1608;50.860;13.466;2023-02-12T09:31:23;9.20;99.90
3194;DHT22;1608;50.860;13.466;2023-02-12T09:33:51;9.20;99.90
3194;DHT22;1608;50.860;13.466;2023-02-12T09:36:18;9.30;99.90
3194;DHT22;1608;50.860;13.466;2023-02-12T09:38:45;9.30;99.90
3194;DHT22;1608;50.860;13.466;2023-02-12T09:44:21;9.30;99.90
3194;DHT22;1608;50.860;13.466;2023-02-12T09:46:56;9.00;99.90
3194;DHT22;1608;50.860;13.466;2023-02-12T09:49:39;9.10;99.90
3194;DHT22;1608;50.860;13.466;2023-02-12T09:52:13;9.20;99.90
3194;DHT22;1608;50.860;13.466;2023-02-12T09:54:42;9.30;99.90
3194;DHT22;1608;50.860;13.466;2023-02-12T09:57:16;9.20;99.90
3194;DHT22;1608;50.860;13.466;2023-02-12T09:59:48;8.90;99.90
3194;DHT22;1608;50.860;13.466;2023-02-12T10:02:18;8.70;99.90
3194;DHT22;1608;50.860;13.466;2023-02-12T10:04:47;8.60;99.90
3194;DHT22;1608;50.860;13.466;2023-02-12T10:07:20;8.70;99.90
3194;DHT22;1608;50.860;13.466;2023-02-12T10:12:49;8.80;99.90
3194;DHT22;1608;50.860;13.466;2023-02-12T10:15:29;8.80;99.90
3194;DHT22;1608;50.860;13.466;2023-02-12T10:18:05;8.70;99.90
3194;DHT22;1608;50.860;13.466;2023-02-12T10:20:48;8.80;99.90
3194;DHT22;1608;50.860;13.466;2023-02-12T10:23:39;8.50;99.90
3194;DHT22;1608;50.860;13.466;2023-02-12T10:26:17;8.60;99.90
3194;DHT22;1608;50.860;13.466;2023-02-12T10:28:48;8.90;99.90
3194;DHT22;1608;50.860;13.466;2023-02-12T10:31:23;9.00;99.90
3194;DHT22;1608;50.860;13.466;2023-02-12T10:33:51;8.90;99.90
3194;DHT22;1608;50.860;13.466;2023-02-12T10:36:31;8.90;99.90
3194;DHT22;1608;50.860;13.466;2023-02-12T10:39:03;9.10;99.90
3194;DHT22;1608;50.860;13.466;2023-02-12T10:41:31;9.30;99.90
3194;DHT22;1608;50.860;13.466;2023-02-12T10:44:02;9.50;99.90
3194;DHT22;1608;50.860;13.466;2023-02-12T10:46:29;9.60;99.90
3194;DHT22;1608;50.860;13.466;2023-02-12T10:48:58;9.80;99.90
3194;DHT22;1608;50.860;13.466;2023-02-12T10:51:40;9.50;99.90
3194;DHT22;1608;50.860;13.466;2023-02-12T10:54:33;9.40;99.90
3194;DHT22;1608;50.860;13.466;2023-02-12T10:57:07;9.50;99.90
3194;DHT22;1608;50.860;13.466;2023-02-12T10:59:37;9.70;99.90
3194;DHT22;1608;50.860;13.466;2023-02-12T11:02:13;9.90;99.90
3194;DHT22;1608;50.860;13.466;2023-02-12T11:04:43;10.00;99.90
3194;DHT22;1608;50.860;13.466;2023-02-12T11:07:10;10.10;99.90
3194;DHT22;1608;50.860;13.466;2023-02-12T11:09:38;10.30;99.90
3194;DHT22;1608;50.860;13.466;2023-02-12T11:12:18;10.40;99.90
3194;DHT22;1608;50.860;13.466;2023-02-12T11:14:49;10.50;99.90
3194;DHT22;1608;50.860;13.466;2023-02-12T11:17:23;10.60;99.90
3194;DHT22;1608;50.860;13.466;2023-02-12T11:20:02;10.60;99.90
3194;DHT22;1608;50.860;13.466;2023-02-12T11:22:30;10.60;99.90
3194;DHT22;1608;50.860;13.466;2023-02-12T11:25:01;10.60;99.90
3194;DHT22;1608;50.860;13.466;2023-02-12T11:27:29;10.20;99.90
3194;DHT22;1608;50.860;13.466;2023-02-12T11:30:16;10.30;99.90
3194;DHT22;1608;50.860;13.466;2023-02-12T11:32:44;10.30;99.90
3194;DHT22;1608;50.860;13.466;2023-02-12T11:35:14;10.30;99.90
3194;DHT22;1608;50.860;13.466;2023-02-12T11:37:44;10.20;99.90
3194;DHT22;1608;50.860;13.466;2023-02-12T11:40:18;9.90;99.90
3194;DHT22;1608;50.860;13.466;2023-02-12T11:42:49;9.60;99.90
3194;DHT22;1608;50.860;13.466;2023-02-12T11:45:20;9.60;99.90
3194;DHT22;1608;50.860;13.466;2023-02-12T11:47:48;9.60;99.90
3194;DHT22;1608;50.860;13.466;2023-02-12T11:50:24;9.70;99.90
3194;DHT22;1608;50.860;13.466;2023-02-12T11:52:53;9.60;99.90
3194;DHT22;1608;50.860;13.466;2023-02-12T11:55:24;9.50;99.90
3194;DHT22;1608;50.860;13.466;2023-02-12T11:57:53;9.50;99.90
3194;DHT22;1608;50.860;13.466;2023-02-12T12:00:24;9.40;99.90
3194;DHT22;1608;50.860;13.466;2023-02-12T12:02:57;9.70;99.90
3194;DHT22;1608;50.860;13.466;2023-02-12T12:05:29;9.80;99.90
3194;DHT22;1608;50.860;13.466;2023-02-12T12:07:59;9.80;99.90
3194;DHT22;1608;50.860;13.466;2023-02-12T12:10:35;10.00;99.90
3194;DHT22;1608;50.860;13.466;2023-02-12T12:13:10;10.20;99.90
3194;DHT22;1608;50.860;13.466;2023-02-12T12:15:43;10.00;99.90
3194;DHT22;1608;50.860;13.466;2023-02-12T12:18:32;10.20;99.90
3194;DHT22;1608;50.860;13.466;2023-02-12T12:21:24;10.30;99.90
3194;DHT22;1608;50.860;13.466;2023-02-12T12:23:57;10.40;99.90
3194;DHT22;1608;50.860;13.466;2023-02-12T12:26:28;10.40;99.90
3194;DHT22;1608;50.860;13.466;2023-02-12T12:29:01;10.40;99.90
3194;DHT22;1608;50.860;13.466;2023-02-12T12:31:34;10.40;99.90
3194;DHT22;1608;50.860;13.466;2023-02-12T12:34:06;10.40;99.90
3194;DHT22;1608;50.860;13.466;2023-02-12T12:37:11;10.40;99.90
3194;DHT22;1608;50.860;13.466;2023-02-12T12:39:51;10.50;99.90
3194;DHT22;1608;50.860;13.466;2023-02-12T12:42:47;10.40;99.90
3194;DHT22;1608;50.860;13.466;2023-02-12T12:45:34;10.50;99.90
3194;DHT22;1608;50.860;13.466;2023-02-12T12:48:20;10.60;99.90
3194;DHT22;1608;50.860;13.466;2023-02-12T12:51:05;10.60;99.90
3194;DHT22;1608;50.860;13.466;2023-02-12T12:53:48;10.60;99.90
3194;DHT22;1608;50.860;13.466;2023-02-12T12:56:36;10.60;99.90
3194;DHT22;1608;50.860;13.466;2023-02-12T13:02:29;10.70;99.90
3194;DHT22;1608;50.860;13.466;2023-02-12T13:05:35;10.70;99.90
3194;DHT22;1608;50.860;13.466;2023-02-12T13:08:14;10.70;99.90
3194;DHT22;1608;50.860;13.466;2023-02-12T13:10:47;10.60;99.90
3194;DHT22;1608;50.860;13.466;2023-02-12T13:13:22;10.60;99.90
3194;DHT22;1608;50.860;13.466;2023-02-12T13:15:56;10.50;99.90
3194;DHT22;1608;50.860;13.466;2023-02-12T13:18:37;10.50;99.90
3194;DHT22;1608;50.860;13.466;2023-02-12T13:21:13;10.50;99.90
3194;DHT22;1608;50.860;13.466;2023-02-12T13:23:47;10.50;99.90
3194;DHT22;1608;50.860;13.466;2023-02-12T13:26:20;10.50;99.90
3194;DHT22;1608;50.860;13.466;2023-02-12T13:28:51;10.50;99.90
3194;DHT22;1608;50.860;13.466;2023-02-12T13:31:21;10.60;99.90
3194;DHT22;1608;50.860;13.466;2023-02-12T13:33:52;10.70;99.90
3194;DHT22;1608;50.860;13.466;2023-02-12T13:36:21;10.80;99.90
3194;DHT22;1608;50.860;13.466;2023-02-12T13:38:51;10.80;99.90
3194;DHT22;1608;50.860;13.466;2023-02-12T13:41:21;10.90;99.90
3194;DHT22;1608;50.860;13.466;2023-02-12T13:44:00;10.90;99.90
3194;DHT22;1608;50.860;13.466;2023-02-12T13:46:33;10.90;99.90
3194;DHT22;1608;50.860;13.466;2023-02-12T13:49:16;10.90;99.90
3194;DHT22;1608;50.860;13.466;2023-02-12T13:51:47;10.90;99.90
3194;DHT22;1608;50.860;13.466;2023-02-12T13:54:39;11.00;99.90
3194;DHT22;1608;50.860;13.466;2023-02-12T13:57:13;11.10;99.90
3194;DHT22;1608;50.860;13.466;2023-02-12T13:59:46;11.10;99.90
3194;DHT22;1608;50.860;13.466;2023-02-12T14:05:29;11.10;99.90
3194;DHT22;1608;50.860;13.466;2023-02-12T14:08:01;11.10;99.90
3194;DHT22;1608;50.860;13.466;2023-02-12T14:10:32;11.10;99.90
3194;DHT22;1608;50.860;13.466;2023-02-12T14:13:20;11.00;99.90
3194;DHT22;1608;50.860;13.466;2023-02-12T14:15:49;10.90;99.90
3194;DHT22;1608;50.860;13.466;2023-02-12T14:18:32;10.90;99.90
3194;DHT22;1608;50.860;13.466;2023-02-12T14:27:28;10.60;99.90
3194;DHT22;1608;50.860;13.466;2023-02-12T14:30:11;10.50;99.90
3194;DHT22;1608;50.860;13.466;2023-02-12T14:33:21;10.50;99.90
3194;DHT22;1608;50.860;13.466;2023-02-12T14:36:13;10.40;99.90
3194;DHT22;1608;50.860;13.466;2023-02-12T14:38:58;10.40;99.90
3194;DHT22;1608;50.860;13.466;2023-02-12T14:41:34;10.40;99.90
3194;DHT22;1608;50.860;13.466;2023-02-12T14:50:14;10.40;99.90
3194;DHT22;1608;50.860;13.466;2023-02-12T14:52:46;10.30;99.90
3194;DHT22;1608;50.860;13.466;2023-02-12T14:55:24;10.30;99.90
3194;DHT22;1608;50.860;13.466;2023-02-12T14:57:56;10.30;99.90
3194;DHT22;1608;50.860;13.466;2023-02-12T15:00:27;10.30;99.90
3194;DHT22;1608;50.860;13.466;2023-02-12T15:03:00;10.40;99.90
3194;DHT22;1608;50.860;13.466;2023-02-12T15:05:30;10.40;99.90
3194;DHT22;1608;50.860;13.466;2023-02-12T15:08:00;10.40;99.90
3194;DHT22;1608;50.860;13.466;2023-02-12T15:10:30;10.40;99.90
3194;DHT22;1608;50.860;13.466;2023-02-12T15:13:06;10.30;99.90
3194;DHT22;1608;50.860;13.466;2023-02-12T15:15:38;10.30;99.90
3194;DHT22;1608;50.860;13.466;2023-02-12T15:18:14;10.20;99.90
3194;DHT22;1608;50.860;13.466;2023-02-12T15:20:45;10.20;99.90
3194;DHT22;1608;50.860;13.466;2023-02-12T15:23:35;10.20;99.90
3194;DHT22;1608;50.860;13.466;2023-02-12T15:26:04;10.10;99.90
3194;DHT22;1608;50.860;13.466;2023-02-12T15:28:33;10.10;99.90
3194;DHT22;1608;50.860;13.466;2023-02-12T15:31:03;10.00;99.90
3194;DHT22;1608;50.860;13.466;2023-02-12T15:33:39;10.00;99.90
3194;DHT22;1608;50.860;13.466;2023-02-12T15:36:08;10.00;99.90
3194;DHT22;1608;50.860;13.466;2023-02-12T15:38:38;9.90;99.90
3194;DHT22;1608;50.860;13.466;2023-02-12T15:41:07;9.90;99.90
3194;DHT22;1608;50.860;13.466;2023-02-12T15:43:39;9.90;99.90
3194;DHT22;1608;50.860;13.466;2023-02-12T15:46:15;9.80;99.90
3194;DHT22;1608;50.860;13.466;2023-02-12T15:48:44;9.80;99.90
3194;DHT22;1608;50.860;13.466;2023-02-12T15:51:17;9.80;99.90
3194;DHT22;1608;50.860;13.466;2023-02-12T15:53:45;9.80;99.90
3194;DHT22;1608;50.860;13.466;2023-02-12T15:56:15;9.70;99.90
3194;DHT22;1608;50.860;13.466;2023-02-12T15:58:46;9.70;99.90
3194;DHT22;1608;50.860;13.466;2023-02-12T16:01:15;9.70;99.90
3194;DHT22;1608;50.860;13.466;2023-02-12T16:03:44;9.70;99.90
3194;DHT22;1608;50.860;13.466;2023-02-12T16:06:15;9.70;99.90
3194;DHT22;1608;50.860;13.466;2023-02-12T16:08:43;9.70;99.90
3194;DHT22;1608;50.860;13.466;2023-02-12T16:11:12;9.70;99.90
3194;DHT22;1608;50.860;13.466;2023-02-12T16:13:43;9.70;99.90
3194;DHT22;1608;50.860;13.466;2023-02-12T16:16:20;9.70;99.90
3194;DHT22;1608;50.860;13.466;2023-02-12T16:19:05;9.60;99.90
3194;DHT22;1608;50.860;13.466;2023-02-12T16:21:34;9.60;99.90
3194;DHT22;1608;50.860;13.466;2023-02-12T16:24:01;9.50;99.90
3194;DHT22;1608;50.860;13.466;2023-02-12T16:26:28;9.50;99.90
3194;DHT22;1608;50.860;13.466;2023-02-12T16:28:56;9.40;99.90
3194;DHT22;1608;50.860;13.466;2023-02-12T16:31:25;9.40;99.90
3194;DHT22;1608;50.860;13.466;2023-02-12T16:33:53;9.40;99.90
3194;DHT22;1608;50.860;13.466;2023-02-12T16:36:30;9.40;99.90
3194;DHT22;1608;50.860;13.466;2023-02-12T16:38:59;9.30;99.90
3194;DHT22;1608;50.860;13.466;2023-02-12T16:41:27;9.30;99.90
3194;DHT22;1608;50.860;13.466;2023-02-12T16:44:26;9.30;99.90
3194;DHT22;1608;50.860;13.466;2023-02-12T16:46:58;9.30;99.90
3194;DHT22;1608;50.860;13.466;2023-02-12T16:49:25;9.30;99.90